Time;durP1;ratioP1;P1;durP2;ratioP2;P2;SDS_P1;SDS_P2;PMS_P1;PMS_P2;Temp;Humidity;BMP_temperature;BMP_pressure;BME280_temperature;BME280_humidity;BME280_pressure;Samples;Min_cycle;Max_cycle;Signal;HPM_P1;HPM_P2
2024/01/28 00:01:36;;;;;;;6.27;5.67;;;4.20;57.30;;;;;;5069248;28;20267;-63
2024/01/28 00:04:02;;;;;;;6.33;5.53;;;4.00;57.70;;;;;;5068080;28;20228;-63
2024/01/28 00:06:29;;;;;;;9.63;6.90;;;3.90;58.10;;;;;;5061817;28;20669;-63
2024/01/28 00:08:57;;;;;;;6.77;5.70;;;4.00;57.80;;;;;;5069939;28;20212;-63
2024/01/28 00:11:24;;;;;;;7.33;6.27;;;4.00;57.70;;;;;;5069376;28;20780;-63
2024/01/28 00:13:50;;;;;;;7.73;5.70;;;3.70;58.40;;;;;;5070172;28;20253;-65
2024/01/28 00:16:17;;;;;;;7.93;5.77;;;3.80;58.00;;;;;;5067874;28;20254;-65
2024/01/28 00:18:44;;;;;;;7.03;5.80;;;3.70;58.00;;;;;;5071141;28;20201;-64
2024/01/28 00:21:10;;;;;;;7.27;6.43;;;3.80;58.10;;;;;;5062241;28;20267;-64
2024/01/28 00:23:37;;;;;;;6.67;5.87;;;3.60;58.50;;;;;;5071924;28;20735;-65
2024/01/28 00:26:04;;;;;;;9.53;6.20;;;3.70;58.10;;;;;;5068321;28;20232;-65
2024/01/28 00:28:30;;;;;;;6.40;5.63;;;3.70;58.30;;;;;;5071365;28;20206;-65
2024/01/28 00:30:57;;;;;;;7.03;6.33;;;3.60;58.30;;;;;;5065489;28;20248;-65
2024/01/28 00:33:23;;;;;;;7.33;6.27;;;3.50;58.90;;;;;;5074132;28;20240;-64
2024/01/28 00:35:50;;;;;;;7.50;6.17;;;3.50;58.60;;;;;;5072302;28;20271;-65
2024/01/28 00:38:16;;;;;;;8.53;5.90;;;3.50;58.40;;;;;;5066326;28;20203;-65
2024/01/28 00:40:43;;;;;;;7.83;5.70;;;3.50;58.70;;;;;;5071912;28;20300;-65
2024/01/28 00:43:09;;;;;;;6.17;5.57;;;3.50;58.60;;;;;;5063470;28;20228;-64
2024/01/28 00:45:36;;;;;;;7.60;5.53;;;3.40;58.40;;;;;;5073008;28;20259;-65
2024/01/28 00:48:02;;;;;;;7.13;5.80;;;3.50;58.40;;;;;;5066412;28;20207;-64
2024/01/28 00:50:29;;;;;;;9.27;5.40;;;3.40;57.70;;;;;;5074206;28;20240;-65
2024/01/28 00:52:55;;;;;;;5.93;5.00;;;3.40;58.10;;;;;;5074431;28;20302;-64
2024/01/28 00:55:22;;;;;;;6.70;5.10;;;3.40;57.90;;;;;;5074319;28;20298;-64
2024/01/28 00:57:49;;;;;;;6.23;5.27;;;3.40;57.70;;;;;;5069737;28;20249;-64
2024/01/28 01:00:15;;;;;;;5.70;5.20;;;3.30;57.40;;;;;;5064808;28;20266;-65
2024/01/28 01:02:42;;;;;;;5.97;4.70;;;3.20;57.60;;;;;;5069768;28;20271;-64
2024/01/28 01:05:11;;;;;;;5.87;4.97;;;3.30;57.60;;;;;;5073489;28;20264;-65
2024/01/28 01:07:38;;;;;;;6.27;5.70;;;3.30;57.60;;;;;;5064901;28;20211;-64
2024/01/28 01:10:05;;;;;;;5.37;4.73;;;3.40;57.20;;;;;;5065780;28;20618;-64
2024/01/28 01:12:31;;;;;;;6.03;4.53;;;3.60;56.40;;;;;;5071405;28;20246;-64
2024/01/28 01:14:58;;;;;;;5.90;5.00;;;3.20;57.30;;;;;;5066731;28;20191;-65
2024/01/28 01:17:24;;;;;;;6.43;5.23;;;3.10;57.50;;;;;;5061690;28;20553;-65
2024/01/28 01:19:51;;;;;;;5.53;4.53;;;3.30;57.40;;;;;;5070266;28;20235;-65
2024/01/28 01:22:17;;;;;;;5.43;4.93;;;3.30;56.70;;;;;;5073043;28;20291;-64
2024/01/28 01:24:44;;;;;;;5.00;4.50;;;3.30;56.60;;;;;;5072564;28;20198;-65
2024/01/28 01:27:10;;;;;;;4.90;4.37;;;3.10;57.50;;;;;;5073340;28;20206;-65
2024/01/28 01:29:37;;;;;;;4.77;4.20;;;3.20;57.60;;;;;;5073339;28;20240;-64
2024/01/28 01:32:04;;;;;;;4.53;4.13;;;3.20;57.00;;;;;;5065147;28;20217;-65
2024/01/28 01:34:32;;;;;;;5.27;4.50;;;3.40;56.20;;;;;;5070256;28;20205;-65
2024/01/28 01:36:59;;;;;;;6.00;4.87;;;3.40;56.30;;;;;;5062396;28;20690;-64
2024/01/28 01:39:25;;;;;;;5.40;4.90;;;3.20;56.80;;;;;;5065118;28;20264;-64
2024/01/28 01:41:52;;;;;;;5.77;4.60;;;3.20;57.00;;;;;;5071323;28;20228;-65
2024/01/28 01:44:20;;;;;;;6.40;4.83;;;3.20;56.90;;;;;;5064495;28;20204;-65
2024/01/28 01:46:46;;;;;;;4.83;4.10;;;3.30;56.60;;;;;;5066645;28;20217;-64
2024/01/28 01:49:14;;;;;;;4.90;4.27;;;3.10;56.70;;;;;;5072948;28;20233;-64
2024/01/28 01:51:41;;;;;;;4.90;4.40;;;3.20;56.80;;;;;;5071599;28;20290;-65
2024/01/28 01:54:07;;;;;;;4.50;4.10;;;3.10;56.90;;;;;;5066304;28;20245;-64
2024/01/28 01:56:34;;;;;;;5.53;4.73;;;3.10;57.40;;;;;;5072403;28;20690;-65
2024/01/28 01:59:00;;;;;;;5.70;5.03;;;3.20;56.80;;;;;;5067437;28;20242;-64
2024/01/28 02:01:27;;;;;;;5.37;4.87;;;3.00;56.90;;;;;;5071784;28;20230;-65
2024/01/28 02:03:55;;;;;;;5.17;4.67;;;3.00;57.70;;;;;;5072837;28;20236;-65
2024/01/28 02:06:22;;;;;;;4.63;4.23;;;2.90;57.30;;;;;;5066069;28;20222;-65
2024/01/28 02:08:48;;;;;;;6.27;4.47;;;3.00;57.10;;;;;;5068402;28;21123;-65
2024/01/28 02:11:15;;;;;;;4.77;4.37;;;2.90;57.50;;;;;;5072144;28;20264;-65
2024/01/28 02:13:42;;;;;;;5.13;4.20;;;2.80;57.70;;;;;;5072035;28;20574;-64
2024/01/28 02:16:08;;;;;;;4.97;3.83;;;2.90;57.60;;;;;;5066580;28;20229;-65
2024/01/28 02:18:35;;;;;;;5.40;4.90;;;2.90;57.10;;;;;;5072506;28;20208;-64
2024/01/28 02:21:04;;;;;;;5.03;4.17;;;2.80;57.20;;;;;;5055526;28;20237;-64
2024/01/28 02:23:31;;;;;;;6.53;4.97;;;2.70;57.20;;;;;;5063459;28;20232;-65
2024/01/28 02:25:58;;;;;;;6.17;4.13;;;2.70;57.20;;;;;;5070114;28;20291;-63
2024/01/28 02:28:24;;;;;;;9.67;4.53;;;2.60;57.50;;;;;;5072031;28;20663;-65
2024/01/28 02:30:51;;;;;;;4.53;4.13;;;2.60;57.50;;;;;;5067918;28;20217;-65
2024/01/28 02:33:17;;;;;;;4.67;4.03;;;2.80;57.20;;;;;;5063987;28;20237;-65
2024/01/28 02:35:46;;;;;;;4.90;3.77;;;2.70;57.20;;;;;;5070177;28;20235;-65
2024/01/28 02:38:13;;;;;;;4.60;4.20;;;2.60;56.90;;;;;;5071749;28;20244;-65
2024/01/28 02:40:40;;;;;;;4.13;3.73;;;2.70;56.70;;;;;;5071713;28;20204;-65
2024/01/28 02:43:07;;;;;;;4.23;3.67;;;2.50;57.00;;;;;;5070337;28;20205;-64
2024/01/28 02:45:33;;;;;;;4.60;4.20;;;2.60;57.00;;;;;;5071327;28;20232;-64
2024/01/28 02:48:00;;;;;;;3.80;3.50;;;2.70;56.70;;;;;;5062842;28;20236;-64
2024/01/28 02:50:26;;;;;;;4.60;4.20;;;2.70;56.50;;;;;;5057800;28;20201;-65
2024/01/28 02:52:53;;;;;;;4.50;3.97;;;2.70;56.90;;;;;;5062980;28;20638;-64
2024/01/28 02:55:20;;;;;;;3.70;3.37;;;2.60;56.50;;;;;;5071436;28;20205;-65
2024/01/28 02:57:46;;;;;;;5.17;3.60;;;2.70;56.30;;;;;;5066530;28;20216;-65
2024/01/28 03:00:13;;;;;;;4.17;3.37;;;2.80;55.90;;;;;;5061001;28;20206;-64
2024/01/28 03:02:40;;;;;;;4.07;3.77;;;2.70;55.30;;;;;;5070398;28;20221;-64
2024/01/28 03:05:06;;;;;;;3.93;3.53;;;2.50;56.00;;;;;;5070073;28;20300;-65
2024/01/28 03:07:33;;;;;;;4.30;3.67;;;2.40;56.10;;;;;;5065277;28;20635;-64
2024/01/28 03:10:00;;;;;;;3.57;3.27;;;2.50;56.20;;;;;;5063379;28;20237;-65
2024/01/28 03:12:27;;;;;;;4.80;3.33;;;2.50;56.30;;;;;;5071275;28;20708;-64
2024/01/28 03:14:53;;;;;;;4.30;3.90;;;2.50;56.20;;;;;;5064480;28;20244;-65
2024/01/28 03:17:20;;;;;;;3.70;3.33;;;2.50;56.20;;;;;;5064813;28;20206;-65
2024/01/28 03:19:46;;;;;;;3.80;3.50;;;2.50;56.20;;;;;;5069189;28;20298;-64
2024/01/28 03:22:13;;;;;;;4.47;4.00;;;2.60;55.80;;;;;;5070983;28;20718;-64
2024/01/28 03:24:40;;;;;;;3.43;3.13;;;2.60;55.50;;;;;;5066511;28;20201;-65
2024/01/28 03:27:09;;;;;;;3.77;3.47;;;2.80;55.20;;;;;;5071031;28;20228;-64
2024/01/28 03:29:36;;;;;;;4.33;3.23;;;2.70;55.00;;;;;;5071440;28;20209;-64
2024/01/28 03:32:03;;;;;;;3.70;3.40;;;2.70;55.10;;;;;;5060875;28;20303;-65
2024/01/28 03:34:29;;;;;;;3.57;3.37;;;2.70;54.90;;;;;;5066637;28;20200;-64
2024/01/28 03:36:58;;;;;;;6.80;4.40;;;2.80;54.80;;;;;;5070818;28;20244;-64
2024/01/28 03:39:25;;;;;;;4.43;4.03;;;2.70;55.60;;;;;;5071236;28;20214;-63
2024/01/28 03:41:52;;;;;;;3.80;3.50;;;2.60;55.90;;;;;;5071266;28;20226;-64
2024/01/28 03:44:22;;;;;;;4.47;4.00;;;2.60;56.20;;;;;;5064903;28;20233;-65
2024/01/28 03:46:50;;;;;;;4.27;3.97;;;2.30;56.60;;;;;;5069258;28;20267;-65
2024/01/28 03:49:16;;;;;;;4.37;4.07;;;2.30;56.80;;;;;;5062495;28;20209;-65
2024/01/28 03:51:43;;;;;;;4.33;3.93;;;2.60;56.10;;;;;;5058702;28;20225;-64
2024/01/28 03:54:10;;;;;;;4.50;4.10;;;2.40;56.10;;;;;;5065349;28;20710;-64
2024/01/28 03:56:37;;;;;;;4.10;3.80;;;2.50;55.60;;;;;;5072726;28;20209;-64
2024/01/28 03:59:03;;;;;;;4.50;4.10;;;2.60;55.70;;;;;;5067532;28;20244;-64
2024/01/28 04:01:30;;;;;;;4.53;4.13;;;2.60;55.60;;;;;;5076027;28;20253;-64
2024/01/28 04:03:57;;;;;;;5.23;4.50;;;2.50;55.80;;;;;;5076067;28;20267;-64
2024/01/28 04:06:24;;;;;;;5.37;4.13;;;2.40;56.30;;;;;;5075055;28;20319;-65
2024/01/28 04:08:52;;;;;;;4.60;4.20;;;2.40;56.90;;;;;;5073834;28;20270;-64
2024/01/28 04:11:18;;;;;;;5.20;4.80;;;2.50;56.20;;;;;;5066128;28;20225;-64
2024/01/28 04:13:45;;;;;;;5.30;4.80;;;2.50;56.20;;;;;;5073956;28;20254;-65
2024/01/28 04:16:11;;;;;;;5.00;4.60;;;2.30;57.60;;;;;;5074519;28;20619;-64
2024/01/28 04:18:38;;;;;;;4.73;4.33;;;2.50;57.50;;;;;;5073924;28;20205;-64
2024/01/28 04:21:05;;;;;;;5.80;5.30;;;;;;;;;;5074322;28;20236;-65
2024/01/28 04:23:32;;;;;;;5.37;4.87;;;2.50;55.80;;;;;;5074340;28;20234;-64
2024/01/28 04:25:58;;;;;;;5.57;5.10;;;2.50;57.00;;;;;;5071216;28;20252;-65
2024/01/28 04:28:27;;;;;;;5.30;4.87;;;2.40;56.90;;;;;;5063549;28;20888;-65
2024/01/28 04:30:53;;;;;;;6.73;5.37;;;2.30;57.40;;;;;;5064488;28;20267;-64
2024/01/28 04:33:20;;;;;;;6.00;5.43;;;2.40;57.30;;;;;;5073784;28;20248;-64
2024/01/28 04:35:46;;;;;;;5.17;4.70;;;2.40;57.10;;;;;;5073716;28;20659;-65
2024/01/28 04:38:13;;;;;;;6.10;5.50;;;2.40;56.90;;;;;;5074057;28;20232;-65
2024/01/28 04:40:39;;;;;;;5.70;5.10;;;2.70;56.50;;;;;;5073914;28;20228;-65
2024/01/28 04:43:06;;;;;;;5.60;5.10;;;2.60;56.70;;;;;;5072461;28;20209;-64
2024/01/28 04:45:32;;;;;;;5.50;5.00;;;2.60;56.50;;;;;;5066372;28;20251;-65
2024/01/28 04:47:59;;;;;;;6.23;5.30;;;2.50;57.00;;;;;;5072674;28;20286;-65
2024/01/28 04:50:25;;;;;;;6.10;5.07;;;2.60;56.60;;;;;;5074061;28;20236;-64
2024/01/28 04:52:52;;;;;;;5.50;5.00;;;2.50;57.00;;;;;;5073401;28;20765;-65
2024/01/28 04:55:18;;;;;;;5.57;5.17;;;2.40;56.90;;;;;;5073669;28;20213;-65
2024/01/28 04:57:45;;;;;;;5.57;5.10;;;2.50;57.00;;;;;;5073593;28;20204;-64
2024/01/28 05:00:11;;;;;;;5.57;5.07;;;2.50;56.90;;;;;;5072132;28;20208;-64
2024/01/28 05:02:41;;;;;;;5.07;4.73;;;2.50;56.70;;;;;;5069811;28;20243;-64
2024/01/28 05:05:08;;;;;;;5.80;5.20;;;2.40;57.00;;;;;;5065718;28;20231;-64
2024/01/28 05:07:35;;;;;;;5.23;4.70;;;2.40;56.90;;;;;;5072796;28;20299;-64
2024/01/28 05:10:01;;;;;;;5.93;5.43;;;2.30;57.60;;;;;;5064292;28;20197;-64
2024/01/28 05:12:28;;;;;;;5.30;4.80;;;2.30;57.60;;;;;;5064922;28;20229;-64
2024/01/28 05:14:54;;;;;;;5.60;5.03;;;2.20;58.10;;;;;;5066498;28;20205;-64
2024/01/28 05:17:21;;;;;;;4.80;4.50;;;2.20;57.90;;;;;;5063357;28;20286;-64
2024/01/28 05:19:48;;;;;;;5.60;5.00;;;2.20;58.30;;;;;;5073085;28;20201;-64
2024/01/28 05:22:15;;;;;;;5.57;4.97;;;2.50;57.00;;;;;;5073009;28;20233;-64
2024/01/28 05:24:42;;;;;;;5.27;4.80;;;2.50;56.90;;;;;;5073155;28;20205;-64
2024/01/28 05:27:09;;;;;;;5.03;4.63;;;2.50;57.00;;;;;;5072818;28;20625;-63
2024/01/28 05:29:37;;;;;;;5.13;4.73;;;2.50;57.00;;;;;;5072809;28;20681;-64
2024/01/28 05:32:04;;;;;;;5.30;4.80;;;2.40;57.10;;;;;;5060464;28;20232;-64
2024/01/28 05:34:30;;;;;;;5.43;4.93;;;2.30;56.80;;;;;;5071786;28;20233;-64
2024/01/28 05:36:57;;;;;;;5.80;5.30;;;2.20;58.10;;;;;;5073231;28;20213;-64
2024/01/28 05:39:23;;;;;;;5.27;4.87;;;2.10;58.40;;;;;;5072838;28;20241;-64
2024/01/28 05:41:50;;;;;;;5.40;5.00;;;2.10;58.90;;;;;;5072665;28;20334;-64
2024/01/28 05:44:16;;;;;;;5.10;4.67;;;2.30;58.00;;;;;;5072413;28;20232;-64
2024/01/28 05:46:43;;;;;;;5.40;4.90;;;2.30;57.90;;;;;;5072702;28;20221;-64
2024/01/28 05:49:11;;;;;;;4.77;4.40;;;2.20;57.80;;;;;;5072563;28;20240;-63
2024/01/28 05:51:39;;;;;;;5.00;4.60;;;2.40;57.50;;;;;;5063849;28;20318;-64
2024/01/28 05:54:05;;;;;;;5.47;4.97;;;2.40;56.90;;;;;;5071626;28;20213;-64
2024/01/28 05:56:32;;;;;;;5.03;4.63;;;2.30;57.40;;;;;;5072010;28;20208;-64
2024/01/28 05:58:58;;;;;;;5.50;5.00;;;2.10;58.40;;;;;;5072421;28;20259;-64
2024/01/28 06:01:25;;;;;;;5.43;4.93;;;2.10;58.40;;;;;;5072237;28;20803;-64
2024/01/28 06:03:52;;;;;;;5.60;5.10;;;2.00;59.30;;;;;;5072167;28;20209;-64
2024/01/28 06:06:18;;;;;;;5.47;4.97;;;2.00;59.20;;;;;;5066238;28;20226;-64
2024/01/28 06:08:45;;;;;;;5.40;4.90;;;1.90;59.50;;;;;;5063355;28;20225;-63
2024/01/28 06:11:11;;;;;;;6.10;5.50;;;2.10;59.30;;;;;;5062799;28;20314;-64
2024/01/28 06:13:38;;;;;;;5.60;5.20;;;2.10;59.50;;;;;;5059112;28;20233;-64
2024/01/28 06:16:06;;;;;;;5.43;4.90;;;1.90;59.60;;;;;;5065314;28;20247;-64
2024/01/28 06:18:32;;;;;;;5.90;5.27;;;1.80;59.90;;;;;;5070921;28;20216;-64
2024/01/28 06:20:59;;;;;;;5.57;5.07;;;2.00;60.30;;;;;;5071395;28;20247;-64
2024/01/28 06:23:25;;;;;;;5.20;4.80;;;2.10;59.80;;;;;;5071351;28;20205;-64
2024/01/28 06:25:52;;;;;;;5.80;5.27;;;2.30;58.70;;;;;;5070241;28;20240;-64
2024/01/28 06:28:18;;;;;;;4.97;4.57;;;2.20;58.70;;;;;;5071659;28;20239;-64
2024/01/28 06:30:45;;;;;;;5.30;4.83;;;2.20;59.50;;;;;;5071726;28;20293;-64
2024/01/28 06:33:12;;;;;;;5.20;4.80;;;2.10;59.20;;;;;;5067490;28;20212;-64
2024/01/28 06:35:38;;;;;;;5.17;4.73;;;2.00;60.10;;;;;;5067789;28;20259;-64
2024/01/28 06:38:05;;;;;;;5.63;5.00;;;2.00;60.40;;;;;;5071959;28;20248;-64
2024/01/28 06:40:31;;;;;;;5.17;4.77;;;1.90;60.50;;;;;;5070449;28;20205;-64
2024/01/28 06:42:58;;;;;;;5.33;4.93;;;1.80;60.70;;;;;;5071559;28;20302;-64
2024/01/28 06:45:25;;;;;;;5.07;4.67;;;2.00;60.90;;;;;;5071681;28;20205;-64
2024/01/28 06:47:52;;;;;;;5.40;4.90;;;2.00;60.40;;;;;;5071880;28;20270;-64
2024/01/28 06:50:20;;;;;;;4.87;4.57;;;2.20;59.60;;;;;;5067929;28;20689;-63
2024/01/28 06:52:47;;;;;;;5.60;5.10;;;2.10;59.60;;;;;;5063624;28;20307;-64
2024/01/28 06:55:14;;;;;;;6.67;5.57;;;2.20;59.50;;;;;;5067786;28;20200;-64
2024/01/28 06:57:41;;;;;;;5.17;4.67;;;2.10;59.80;;;;;;5067659;28;20201;-64
2024/01/28 07:00:10;;;;;;;5.50;5.00;;;2.20;59.70;;;;;;5072610;28;20243;-64
2024/01/28 07:02:37;;;;;;;6.03;5.03;;;2.00;60.00;;;;;;5058794;28;20231;-64
2024/01/28 07:05:03;;;;;;;5.40;4.90;;;2.00;60.20;;;;;;5060637;28;20739;-64
2024/01/28 07:07:30;;;;;;;5.60;4.77;;;2.00;60.00;;;;;;5065337;28;20225;-64
2024/01/28 07:09:56;;;;;;;6.13;5.23;;;2.20;59.60;;;;;;5061497;28;20201;-64
2024/01/28 07:12:23;;;;;;;4.80;4.40;;;2.10;59.70;;;;;;5074805;28;20228;-64
2024/01/28 07:14:49;;;;;;;5.37;4.90;;;2.20;59.40;;;;;;5062755;28;20209;-64
2024/01/28 07:17:16;;;;;;;6.40;5.90;;;2.20;59.60;;;;;;5066413;28;20585;-64
2024/01/28 07:19:43;;;;;;;4.90;4.50;;;2.20;59.10;;;;;;5071417;28;20213;-64
2024/01/28 07:22:11;;;;;;;4.90;4.50;;;2.30;59.20;;;;;;5045616;28;20241;-64
2024/01/28 07:24:37;;;;;;;6.93;4.73;;;2.10;59.60;;;;;;5059547;28;20234;-64
2024/01/28 07:27:04;;;;;;;5.10;4.60;;;2.10;59.40;;;;;;5069425;28;20225;-64
2024/01/28 07:29:30;;;;;;;4.70;4.30;;;2.20;58.70;;;;;;5067299;28;20228;-64
2024/01/28 07:31:57;;;;;;;5.03;4.63;;;2.40;57.90;;;;;;5053734;28;20293;-64
2024/01/28 07:34:23;;;;;;;5.20;4.77;;;2.30;58.10;;;;;;5067445;28;20631;-64
2024/01/28 07:36:51;;;;;;;4.50;4.10;;;2.40;57.60;;;;;;5070588;28;20228;-64
2024/01/28 07:39:17;;;;;;;5.40;4.90;;;2.50;57.00;;;;;;5070449;28;20209;-64
2024/01/28 07:41:44;;;;;;;5.67;4.90;;;2.40;56.90;;;;;;5071762;28;20257;-64
2024/01/28 07:44:10;;;;;;;5.43;4.83;;;2.40;57.60;;;;;;5074107;28;20207;-64
2024/01/28 07:46:37;;;;;;;5.30;4.90;;;2.40;58.00;;;;;;5072820;28;20654;-64
2024/01/28 07:49:03;;;;;;;5.57;5.10;;;2.40;57.80;;;;;;5066881;28;20293;-64
2024/01/28 07:51:30;;;;;;;5.50;5.07;;;2.30;58.00;;;;;;5061568;28;20252;-64
2024/01/28 07:53:57;;;;;;;5.53;5.10;;;2.40;57.80;;;;;;5066219;28;21483;-64
2024/01/28 07:56:23;;;;;;;5.60;4.70;;;2.40;57.60;;;;;;5072223;28;20232;-64
2024/01/28 07:58:50;;;;;;;5.03;4.63;;;2.50;56.90;;;;;;5072025;28;20235;-64
2024/01/28 08:01:16;;;;;;;5.27;4.77;;;2.60;55.90;;;;;;5071991;28;20779;-64
2024/01/28 08:03:43;;;;;;;4.80;4.40;;;2.60;55.90;;;;;;5068609;28;20201;-64
2024/01/28 08:06:10;;;;;;;4.77;4.37;;;2.70;55.50;;;;;;5065293;28;20695;-64
2024/01/28 08:08:36;;;;;;;4.60;4.17;;;2.90;54.90;;;;;;5064371;28;20600;-64
2024/01/28 08:11:03;;;;;;;4.80;4.40;;;2.90;54.80;;;;;;5065869;28;20252;-64
2024/01/28 08:13:30;;;;;;;5.03;4.63;;;2.80;54.90;;;;;;5073769;28;20215;-64
2024/01/28 08:16:01;;;;;;;4.37;4.07;;;2.80;54.20;;;;;;5065927;28;20255;-64
2024/01/28 08:18:28;;;;;;;5.67;4.40;;;3.00;54.20;;;;;;5068995;28;20205;-64
2024/01/28 08:20:54;;;;;;;4.43;4.13;;;3.00;54.70;;;;;;5072122;28;20209;-64
2024/01/28 08:23:21;;;;;;;4.60;4.30;;;3.00;53.90;;;;;;5067674;28;20200;-64
2024/01/28 08:25:47;;;;;;;4.70;4.20;;;3.20;53.20;;;;;;5068896;28;20557;-64
2024/01/28 08:28:14;;;;;;;4.97;4.57;;;3.10;53.10;;;;;;5067081;28;20253;-65
2024/01/28 08:30:40;;;;;;;5.00;4.60;;;3.20;53.20;;;;;;5070281;28;20237;-65
2024/01/28 08:33:07;;;;;;;4.90;4.50;;;3.30;53.30;;;;;;5073506;28;20209;-65
2024/01/28 08:35:33;;;;;;;5.20;4.70;;;3.40;52.70;;;;;;5065969;28;20207;-65
2024/01/28 08:38:00;;;;;;;4.33;4.03;;;3.30;52.20;;;;;;5073163;28;20298;-65
2024/01/28 08:40:26;;;;;;;4.57;4.17;;;3.60;52.00;;;;;;5066785;28;20239;-64
2024/01/28 08:42:53;;;;;;;4.30;4.00;;;3.70;51.20;;;;;;5063403;28;20306;-65
2024/01/28 08:45:20;;;;;;;4.93;4.53;;;3.90;50.30;;;;;;5067250;28;20256;-65
2024/01/28 08:47:47;;;;;;;4.07;3.73;;;4.20;49.90;;;;;;5066603;28;20228;-65
2024/01/28 08:50:13;;;;;;;4.30;3.97;;;4.10;49.50;;;;;;5066583;28;20583;-64
2024/01/28 08:52:40;;;;;;;5.23;3.90;;;4.50;49.40;;;;;;5070629;28;20250;-64
2024/01/28 08:55:07;;;;;;;4.00;3.70;;;4.90;47.90;;;;;;5066425;28;20225;-64
2024/01/28 08:57:33;;;;;;;4.03;3.63;;;5.10;47.00;;;;;;5067846;28;20198;-64
2024/01/28 09:00:00;;;;;;;3.30;3.10;;;5.30;46.10;;;;;;5073851;28;20212;-64
2024/01/28 09:02:27;;;;;;;3.60;3.30;;;5.80;45.20;;;;;;5060048;28;20250;-64
2024/01/28 09:04:53;;;;;;;3.60;3.30;;;5.80;44.90;;;;;;5066096;28;20207;-64
2024/01/28 09:07:20;;;;;;;3.63;3.30;;;6.10;44.80;;;;;;5071739;28;20231;-65
2024/01/28 09:09:46;;;;;;;3.00;2.80;;;6.20;44.50;;;;;;5071402;28;20203;-65
2024/01/28 09:12:13;;;;;;;3.23;3.03;;;6.40;44.10;;;;;;5060943;28;20772;-65
2024/01/28 09:14:39;;;;;;;3.63;3.40;;;6.50;43.10;;;;;;5064399;28;20212;-65
2024/01/28 09:17:06;;;;;;;3.80;3.37;;;6.50;43.20;;;;;;5073174;28;20262;-63
2024/01/28 09:19:33;;;;;;;3.60;3.30;;;6.60;42.90;;;;;;5063839;28;20209;-64
2024/01/28 09:22:00;;;;;;;4.30;3.67;;;6.80;42.00;;;;;;5064532;28;20290;-65
2024/01/28 09:24:26;;;;;;;3.63;3.33;;;6.90;42.20;;;;;;5070284;28;20216;-64
2024/01/28 09:26:53;;;;;;;3.77;3.47;;;7.00;41.60;;;;;;5065344;28;20274;-64
2024/01/28 09:29:20;;;;;;;4.00;3.73;;;7.20;41.40;;;;;;5049374;28;20209;-65
2024/01/28 09:31:47;;;;;;;2.87;2.67;;;7.40;40.80;;;;;;5063761;28;20290;-65
2024/01/28 09:34:14;;;;;;;3.60;3.30;;;7.60;40.50;;;;;;5064063;28;20225;-65
2024/01/28 09:36:40;;;;;;;3.00;2.80;;;7.70;40.60;;;;;;5069103;28;20226;-65
2024/01/28 09:39:07;;;;;;;3.60;3.20;;;7.90;39.20;;;;;;5070314;28;20256;-65
2024/01/28 09:41:33;;;;;;;3.00;2.80;;;7.90;39.30;;;;;;5064165;28;20261;-65
2024/01/28 09:44:00;;;;;;;3.20;3.00;;;8.20;39.00;;;;;;5068690;28;20210;-65
2024/01/28 09:46:26;;;;;;;2.57;2.43;;;8.10;39.30;;;;;;5046303;28;20210;-69
2024/01/28 09:48:53;;;;;;;3.43;3.13;;;8.50;38.70;;;;;;5062172;28;20222;-65
2024/01/28 09:51:20;;;;;;;3.10;2.90;;;8.70;38.80;;;;;;5072452;28;20258;-65
2024/01/28 09:53:46;;;;;;;3.17;2.93;;;8.60;37.80;;;;;;5061307;28;20697;-64
2024/01/28 09:56:15;;;;;;;3.60;3.10;;;8.70;37.60;;;;;;5062823;28;20231;-64
2024/01/28 09:58:42;;;;;;;3.37;3.07;;;9.00;37.50;;;;;;5069561;28;20203;-64
2024/01/28 10:01:09;;;;;;;3.33;2.90;;;9.00;37.90;;;;;;5056572;28;20242;-65
2024/01/28 10:03:35;;;;;;;3.50;3.17;;;8.90;37.20;;;;;;5061872;28;20244;-64
2024/01/28 10:06:04;;;;;;;2.70;2.50;;;9.20;37.30;;;;;;5064962;28;20673;-65
2024/01/28 10:08:30;;;;;;;2.90;2.70;;;9.20;36.30;;;;;;5064049;28;20632;-64
2024/01/28 10:10:57;;;;;;;3.07;2.77;;;9.40;36.50;;;;;;5068776;28;20218;-64
2024/01/28 10:13:23;;;;;;;2.83;2.57;;;9.60;35.60;;;;;;5063687;28;20251;-65
2024/01/28 10:15:50;;;;;;;2.77;2.43;;;9.80;36.00;;;;;;5061027;28;20236;-64
2024/01/28 10:18:16;;;;;;;2.60;2.20;;;10.10;34.10;;;;;;5063837;28;20621;-64
2024/01/28 10:20:43;;;;;;;2.73;2.53;;;10.10;32.60;;;;;;5064524;28;20206;-66
2024/01/28 10:23:09;;;;;;;3.13;2.60;;;10.30;33.30;;;;;;5063027;28;20671;-64
2024/01/28 10:25:36;;;;;;;2.10;2.00;;;10.50;32.80;;;;;;5061300;28;20206;-63
2024/01/28 10:28:02;;;;;;;3.00;2.70;;;10.50;31.80;;;;;;5062565;28;20314;-64
2024/01/28 10:30:30;;;;;;;3.53;3.23;;;10.50;31.80;;;;;;5052441;28;20210;-63
2024/01/28 10:32:56;;;;;;;3.50;2.47;;;10.60;31.60;;;;;;5058126;28;20251;-63
2024/01/28 10:35:24;;;;;;;2.53;2.33;;;10.80;31.80;;;;;;5065530;28;20211;-63
2024/01/28 10:37:50;;;;;;;2.67;2.23;;;10.90;31.30;;;;;;5058249;28;20206;-62
2024/01/28 10:40:17;;;;;;;2.23;2.13;;;11.00;31.10;;;;;;5069256;28;20642;-63
2024/01/28 10:42:43;;;;;;;3.27;2.37;;;11.10;30.00;;;;;;5065636;28;20269;-65
2024/01/28 10:45:10;;;;;;;2.97;2.43;;;11.20;29.90;;;;;;5064836;28;20208;-63
2024/01/28 10:47:38;;;;;;;2.20;2.07;;;11.40;30.20;;;;;;5058787;28;20251;-63
2024/01/28 10:50:04;;;;;;;2.43;2.23;;;11.50;29.50;;;;;;5065948;28;20197;-63
2024/01/28 10:52:32;;;;;;;2.40;2.20;;;11.50;29.50;;;;;;5068670;28;20248;-65
2024/01/28 10:54:58;;;;;;;2.00;1.90;;;11.60;29.20;;;;;;5064998;28;20233;-66
2024/01/28 10:57:25;;;;;;;2.67;2.47;;;11.70;29.20;;;;;;5069252;28;20730;-66
2024/01/28 10:59:52;;;;;;;2.10;2.00;;;11.60;28.70;;;;;;5066678;28;20644;-66
2024/01/28 11:02:20;;;;;;;2.63;2.30;;;11.80;28.50;;;;;;5062010;28;20386;-65
2024/01/28 11:04:46;;;;;;;2.10;1.93;;;11.60;28.20;;;;;;5062566;28;20205;-65
2024/01/28 11:07:13;;;;;;;2.00;1.90;;;11.90;28.50;;;;;;5068482;28;20245;-67
2024/01/28 11:09:39;;;;;;;2.50;2.30;;;11.90;27.90;;;;;;5071123;28;20682;-66
2024/01/28 11:12:06;;;;;;;2.20;2.10;;;11.50;28.30;;;;;;5061754;28;20236;-70
2024/01/28 11:14:32;;;;;;;1.83;1.70;;;11.70;27.90;;;;;;5063886;28;20313;-66
2024/01/28 11:16:59;;;;;;;9.50;2.20;;;11.80;27.30;;;;;;5071483;28;20778;-66
2024/01/28 11:19:25;;;;;;;2.40;2.10;;;11.80;27.00;;;;;;5054822;28;20233;-65
2024/01/28 11:21:52;;;;;;;1.83;1.73;;;11.80;27.20;;;;;;5070340;28;20242;-65
2024/01/28 11:24:18;;;;;;;2.30;2.20;;;12.40;27.10;;;;;;5066840;28;20204;-65
2024/01/28 11:26:45;;;;;;;2.20;2.00;;;12.30;26.10;;;;;;5071592;28;20252;-64
2024/01/28 11:29:12;;;;;;;2.40;2.20;;;12.60;26.40;;;;;;5070618;28;20773;-63
2024/01/28 11:31:38;;;;;;;1.70;1.60;;;12.50;25.30;;;;;;5061534;28;20224;-65
2024/01/28 11:34:05;;;;;;;2.23;1.70;;;12.40;25.50;;;;;;5061524;28;20232;-66
2024/01/28 11:36:31;;;;;;;2.10;1.90;;;12.80;25.10;;;;;;5062968;28;20228;-66
2024/01/28 11:38:58;;;;;;;3.13;2.13;;;12.90;25.00;;;;;;5066262;28;20680;-65
2024/01/28 11:41:24;;;;;;;2.30;2.10;;;13.00;25.00;;;;;;5061017;28;20255;-65
2024/01/28 11:43:51;;;;;;;2.07;1.97;;;12.90;25.00;;;;;;5065167;28;20201;-65
2024/01/28 11:46:17;;;;;;;1.87;1.77;;;13.10;25.10;;;;;;5051472;28;20305;-66
2024/01/28 11:48:44;;;;;;;2.10;1.90;;;13.10;24.40;;;;;;5045315;28;20251;-65
2024/01/28 11:51:10;;;;;;;1.83;1.50;;;13.30;24.70;;;;;;5065459;28;20249;-66
2024/01/28 11:53:37;;;;;;;2.30;1.80;;;13.60;22.90;;;;;;5067675;28;20205;-66
2024/01/28 11:56:04;;;;;;;1.57;1.47;;;14.40;23.00;;;;;;5059325;28;20208;-69
2024/01/28 11:58:30;;;;;;;2.57;1.70;;;15.80;21.40;;;;;;5062014;28;20287;-65
2024/01/28 12:00:57;;;;;;;2.30;2.03;;;16.40;20.50;;;;;;5059574;28;20217;-65
2024/01/28 12:03:23;;;;;;;2.00;1.90;;;16.60;21.50;;;;;;5062826;28;20531;-65
2024/01/28 12:05:50;;;;;;;2.35;2.25;;;16.70;20.40;;;;;;5060125;28;20509;-65
2024/01/28 12:08:16;;;;;;;2.17;2.08;;;17.70;19.80;;;;;;5064517;28;20278;-64
2024/01/28 12:10:43;;;;;;;2.78;2.58;;;17.60;19.70;;;;;;5066226;28;20572;-65
2024/01/28 12:13:12;;;;;;;4.50;2.80;;;16.90;21.50;;;;;;5063421;28;20216;-65
2024/01/28 12:15:38;;;;;;;2.33;2.10;;;16.10;23.00;;;;;;5070054;28;20205;-65
2024/01/28 12:18:05;;;;;;;4.63;2.67;;;15.70;24.90;;;;;;5070974;28;20290;-65
2024/01/28 12:20:33;;;;;;;2.20;2.00;;;15.50;25.20;;;;;;5063081;28;20289;-65
2024/01/28 12:23:00;;;;;;;2.75;2.55;;;15.40;25.10;;;;;;5073565;28;20307;-65
2024/01/28 12:25:26;;;;;;;2.50;2.30;;;16.20;24.70;;;;;;5074337;28;20790;-65
2024/01/28 12:27:53;;;;;;;3.43;3.10;;;15.70;25.10;;;;;;5073887;28;20225;-65
2024/01/28 12:30:19;;;;;;;4.03;2.50;;;15.70;25.10;;;;;;5073936;28;20217;-65
2024/01/28 12:32:46;;;;;;;3.93;2.47;;;15.20;25.70;;;;;;5073524;28;20227;-65
2024/01/28 12:35:13;;;;;;;2.27;2.07;;;14.70;26.20;;;;;;5066705;28;20251;-65
2024/01/28 12:37:40;;;;;;;2.33;2.00;;;14.70;26.20;;;;;;5060826;28;20304;-64
2024/01/28 12:40:07;;;;;;;3.67;2.20;;;14.30;26.20;;;;;;5067217;28;20250;-65
2024/01/28 12:42:35;;;;;;;2.03;1.90;;;14.10;26.90;;;;;;5061773;28;20257;-65
2024/01/28 12:45:01;;;;;;;4.00;2.13;;;14.00;26.80;;;;;;5072941;28;20671;-65
2024/01/28 12:47:28;;;;;;;2.47;2.27;;;13.70;26.80;;;;;;5073444;28;20208;-64
2024/01/28 12:49:55;;;;;;;2.30;2.10;;;13.50;26.70;;;;;;5065069;28;20254;-65
2024/01/28 12:52:21;;;;;;;2.03;1.90;;;13.60;27.20;;;;;;5072964;28;20722;-65